createdAt,value
2023-02-13T00:00:57.217Z,6.15
2023-02-13T00:03:24.949Z,7.78
2023-02-13T00:05:52.801Z,6.95
2023-02-13T00:08:20.501Z,6.85
2023-02-13T00:10:48.588Z,7.05
2023-02-13T00:13:16.835Z,6.88
2023-02-13T00:15:44.726Z,6.40
2023-02-13T00:18:12.623Z,6.90
2023-02-13T00:20:40.229Z,6.65
2023-02-13T00:23:07.809Z,6.47
2023-02-13T00:25:35.609Z,6.88
2023-02-13T00:28:03.109Z,7.82
2023-02-13T00:30:30.828Z,7.72
2023-02-13T00:32:58.671Z,7.38
2023-02-13T00:35:26.130Z,6.85
2023-02-13T00:37:53.847Z,6.67
2023-02-13T00:40:21.768Z,7.40
2023-02-13T00:42:49.672Z,7.15
2023-02-13T00:45:17.938Z,7.03
2023-02-13T00:47:45.746Z,7.35
2023-02-13T00:50:13.071Z,6.50
2023-02-13T00:52:40.933Z,6.50
2023-02-13T00:55:08.453Z,7.57
2023-02-13T00:57:35.936Z,7.28
2023-02-13T01:00:03.853Z,6.95
2023-02-13T01:02:31.459Z,7.28
2023-02-13T01:04:58.944Z,7.32
2023-02-13T01:07:26.467Z,7.07
2023-02-13T01:09:53.958Z,6.72
2023-02-13T01:12:21.851Z,6.07
2023-02-13T01:14:49.853Z,6.75
2023-02-13T01:17:17.477Z,7.88
2023-02-13T01:19:45.257Z,6.28
2023-02-13T01:22:12.764Z,5.18
2023-02-13T01:24:40.433Z,6.05
2023-02-13T01:27:07.966Z,5.45
2023-02-13T01:29:35.433Z,6.07
2023-02-13T01:32:05.361Z,5.93
2023-02-13T01:34:33.576Z,5.68
2023-02-13T01:37:01.272Z,5.75
2023-02-13T01:39:28.714Z,5.65
2023-02-13T01:41:56.714Z,5.53
2023-02-13T01:44:51.983Z,5.90
2023-02-13T01:47:41.714Z,5.40
2023-02-13T01:50:15.974Z,5.65
2023-02-13T01:52:48.986Z,4.95
2023-02-13T01:55:17.117Z,4.90
2023-02-13T01:57:48.266Z,4.80
2023-02-13T02:00:17.274Z,5.05
2023-02-13T02:02:49.668Z,4.95
2023-02-13T02:05:17.452Z,4.82
2023-02-13T02:07:45.448Z,4.53
2023-02-13T02:10:16.985Z,4.78
2023-02-13T02:12:51.154Z,5.30
2023-02-13T02:15:19.280Z,4.90
2023-02-13T02:17:46.890Z,4.95
2023-02-13T02:20:37.303Z,5.25
2023-02-13T02:23:13.897Z,4.40
2023-02-13T02:26:05.356Z,4.43
2023-02-13T02:28:59.147Z,4.65
2023-02-13T02:31:45.186Z,4.47
2023-02-13T02:34:38.009Z,4.57
2023-02-13T02:37:17.905Z,4.88
2023-02-13T02:39:48.287Z,4.22
2023-02-13T02:42:23.701Z,4.03
2023-02-13T02:45:03.015Z,4.30
2023-02-13T02:47:54.015Z,4.20
2023-02-13T02:50:35.197Z,4.20
2023-02-13T02:53:11.448Z,4.35
2023-02-13T02:55:51.470Z,4.78
2023-02-13T02:58:37.703Z,4.43
2023-02-13T03:01:27.021Z,4.55
2023-02-13T03:04:15.977Z,3.85
2023-02-13T03:06:50.917Z,3.40
2023-02-13T03:09:42.559Z,3.58
2023-02-13T03:12:28.727Z,4.80
2023-02-13T03:14:56.487Z,4.07
2023-02-13T03:17:42.174Z,4.32
2023-02-13T03:20:31.924Z,3.38
2023-02-13T03:23:16.513Z,3.78
2023-02-13T03:25:51.182Z,4.60
2023-02-13T03:29:04.042Z,4.22
2023-02-13T03:31:54.407Z,4.95
2023-02-13T03:34:24.497Z,4.03
2023-02-13T03:37:19.046Z,4.05
2023-02-13T03:39:58.925Z,5.47
2023-02-13T03:42:26.846Z,5.07
2023-02-13T03:45:18.050Z,4.28
2023-02-13T03:47:45.941Z,4.82
2023-02-13T03:50:14.751Z,4.85
2023-02-13T03:52:57.512Z,4.38
2023-02-13T03:55:47.509Z,4.32
2023-02-13T03:58:36.949Z,3.75
2023-02-13T04:01:07.236Z,3.75
2023-02-13T04:03:37.772Z,5.30
2023-02-13T04:06:09.514Z,4.47
2023-02-13T04:08:36.954Z,4.18
2023-02-13T04:11:10.762Z,4.63
2023-02-13T04:14:00.092Z,4.13
2023-02-13T04:17:15.438Z,3.60
2023-02-13T04:19:43.227Z,4.25
2023-02-13T04:22:12.738Z,4.22
2023-02-13T04:24:40.525Z,4.07
2023-02-13T04:27:08.075Z,3.90
2023-02-13T04:29:35.605Z,4.53
2023-02-13T04:32:03.385Z,3.88
2023-02-13T04:34:30.703Z,3.85
2023-02-13T04:36:58.345Z,3.80
2023-02-13T04:39:25.842Z,4.60
2023-02-13T04:41:53.087Z,4.13
2023-02-13T04:44:20.783Z,4.50
2023-02-13T04:46:48.541Z,4.13
2023-02-13T04:49:16.093Z,4.13
2023-02-13T04:51:43.624Z,4.80
2023-02-13T04:54:11.548Z,4.30
2023-02-13T04:56:38.986Z,4.20
2023-02-13T04:59:06.355Z,4.80
2023-02-13T05:01:33.716Z,4.82
2023-02-13T05:04:01.561Z,4.32
2023-02-13T05:06:28.932Z,4.43
2023-02-13T05:08:56.636Z,4.95
2023-02-13T05:11:24.270Z,3.88
2023-02-13T05:13:51.792Z,3.67
2023-02-13T05:16:19.558Z,4.65
2023-02-13T05:18:47.262Z,4.55
2023-02-13T05:21:33.002Z,4.10
2023-02-13T05:24:00.636Z,4.30
2023-02-13T05:26:28.120Z,4.25
2023-02-13T05:29:14.650Z,4.25
2023-02-13T05:31:42.462Z,4.53
2023-02-13T05:34:09.864Z,5.07
2023-02-13T05:36:37.649Z,4.70
2023-02-13T05:39:05.379Z,4.53
2023-02-13T05:41:33.265Z,4.38
2023-02-13T05:44:00.976Z,6.38
2023-02-13T05:46:28.746Z,5.32
2023-02-13T05:48:56.296Z,5.30
2023-02-13T05:51:23.902Z,7.60
2023-02-13T05:53:51.633Z,6.78
2023-02-13T05:56:19.141Z,6.55
2023-02-13T05:58:46.813Z,6.78
2023-02-13T06:01:14.381Z,6.10
2023-02-13T06:03:42.184Z,6.78
2023-02-13T06:06:09.816Z,5.35
2023-02-13T06:08:37.029Z,6.45
2023-02-13T06:11:04.822Z,6.25
2023-02-13T06:13:32.384Z,5.78
2023-02-13T06:15:59.755Z,7.50
2023-02-13T06:18:27.283Z,8.05
2023-02-13T06:20:54.641Z,8.98
2023-02-13T06:23:22.311Z,9.00
2023-02-13T06:25:49.813Z,17.00
2023-02-13T06:28:17.567Z,21.95
2023-02-13T06:30:44.766Z,15.27
2023-02-13T06:33:13.498Z,13.43
2023-02-13T06:35:41.394Z,14.40
2023-02-13T06:38:08.498Z,11.00
2023-02-13T06:40:35.818Z,11.40
2023-02-13T06:43:03.302Z,10.57
2023-02-13T06:45:30.251Z,9.57
2023-02-13T06:47:57.557Z,10.00
2023-02-13T06:50:25.058Z,9.57
2023-02-13T06:52:52.656Z,9.82
2023-02-13T06:55:21.077Z,9.68
2023-02-13T06:57:48.537Z,18.50
2023-02-13T07:00:16.864Z,14.43
2023-02-13T07:02:45.370Z,13.95
2023-02-13T07:05:13.078Z,14.50
2023-02-13T07:07:41.507Z,16.00
2023-02-13T07:10:12.591Z,20.10
2023-02-13T07:12:39.547Z,21.73
2023-02-13T07:15:08.339Z,22.73
2023-02-13T07:17:35.282Z,24.50
2023-02-13T07:20:02.930Z,26.80
2023-02-13T07:22:32.035Z,28.83
2023-02-13T07:25:00.368Z,27.60
2023-02-13T07:27:29.428Z,27.38
2023-02-13T07:29:57.861Z,26.08
2023-02-13T07:32:25.901Z,24.40
2023-02-13T07:35:01.763Z,23.38
2023-02-13T07:37:30.889Z,20.87
2023-02-13T07:39:58.046Z,20.85
2023-02-13T07:42:25.326Z,19.92
2023-02-13T07:44:52.430Z,17.02
2023-02-13T07:47:20.448Z,15.75
2023-02-13T07:49:47.521Z,15.07
2023-02-13T07:52:14.722Z,13.48
2023-02-13T07:54:47.801Z,14.77
2023-02-13T07:57:16.364Z,15.90
2023-02-13T07:59:43.653Z,16.30
2023-02-13T08:02:14.510Z,16.03
2023-02-13T08:04:41.939Z,15.82
2023-02-13T08:07:08.977Z,16.67
2023-02-13T08:09:54.283Z,18.42
2023-02-13T08:12:21.302Z,15.50
2023-02-13T08:14:48.261Z,16.47
2023-02-13T08:17:15.034Z,16.98
2023-02-13T08:19:42.111Z,16.13
2023-02-13T08:22:09.446Z,15.98
2023-02-13T08:24:36.400Z,14.30
2023-02-13T08:27:03.714Z,13.83
2023-02-13T08:29:30.726Z,12.88
2023-02-13T08:31:57.696Z,12.38
2023-02-13T08:34:24.998Z,12.35
2023-02-13T08:36:51.935Z,10.95
2023-02-13T08:39:18.878Z,10.47
2023-02-13T08:41:45.758Z,9.63
2023-02-13T08:44:12.703Z,9.90
2023-02-13T08:46:40.866Z,10.70
2023-02-13T08:49:07.916Z,10.75
2023-02-13T08:51:35.004Z,11.77
2023-02-13T08:54:02.038Z,12.48
2023-02-13T08:56:29.113Z,11.93
2023-02-13T08:58:56.169Z,11.02
2023-02-13T09:01:24.194Z,11.48
2023-02-13T09:03:51.427Z,11.93
2023-02-13T09:06:18.721Z,11.77
2023-02-13T09:08:45.531Z,11.50
2023-02-13T09:11:12.632Z,10.38
2023-02-13T09:13:39.674Z,10.55
2023-02-13T09:16:07.952Z,10.60
2023-02-13T09:18:35.413Z,10.25
2023-02-13T09:21:07.688Z,10.38
2023-02-13T09:23:36.884Z,10.77
2023-02-13T09:26:05.449Z,10.32
2023-02-13T09:28:33.994Z,9.40
2023-02-13T09:31:12.545Z,10.38
2023-02-13T09:33:39.658Z,11.00
2023-02-13T09:36:13.800Z,9.70
2023-02-13T09:38:43.964Z,10.13
2023-02-13T09:41:24.384Z,10.53
2023-02-13T09:44:04.944Z,9.73
2023-02-13T09:46:41.602Z,9.82
2023-02-13T09:49:14.301Z,10.43
2023-02-13T09:51:44.070Z,10.90
2023-02-13T09:54:16.058Z,9.73
2023-02-13T09:56:54.995Z,10.77
2023-02-13T09:59:27.842Z,12.10
2023-02-13T10:01:55.620Z,10.93
2023-02-13T10:04:44.047Z,11.45
2023-02-13T10:07:14.059Z,11.57
2023-02-13T10:09:47.222Z,12.25
2023-02-13T10:12:23.015Z,11.57
2023-02-13T10:15:03.821Z,11.85
2023-02-13T10:17:37.090Z,11.70
2023-02-13T10:20:34.734Z,11.73
2023-02-13T10:23:21.584Z,12.27
2023-02-13T10:26:03.426Z,11.82
2023-02-13T10:28:42.033Z,11.43
2023-02-13T10:31:15.280Z,10.70
2023-02-13T10:33:51.105Z,11.13
2023-02-13T10:36:30.747Z,11.60
2023-02-13T10:39:02.497Z,11.38
2023-02-13T10:41:54.647Z,11.55
2023-02-13T10:44:24.830Z,10.70
2023-02-13T10:47:13.044Z,11.77
2023-02-13T10:50:04.145Z,9.98
2023-02-13T10:52:39.881Z,9.55
2023-02-13T10:55:28.351Z,10.77
2023-02-13T10:58:17.254Z,11.35
2023-02-13T11:00:44.158Z,10.87
2023-02-13T11:03:20.352Z,11.20
2023-02-13T11:05:47.521Z,10.85
2023-02-13T11:08:23.906Z,10.40
2023-02-13T11:10:52.325Z,10.15
2023-02-13T11:13:22.767Z,15.57
2023-02-13T11:16:10.560Z,12.85
2023-02-13T11:18:40.212Z,10.43
2023-02-13T11:21:23.192Z,10.40
2023-02-13T11:23:53.027Z,11.38
2023-02-13T11:26:31.442Z,11.37
2023-02-13T11:29:01.992Z,10.65
2023-02-13T11:31:31.930Z,10.45
2023-02-13T11:34:01.348Z,9.38
2023-02-13T11:36:31.447Z,10.07
2023-02-13T11:39:06.288Z,7.30
2023-02-13T11:41:44.425Z,7.35
2023-02-13T11:44:28.939Z,7.57
2023-02-13T11:47:00.595Z,7.93
2023-02-13T11:49:29.856Z,7.60
2023-02-13T11:52:01.273Z,8.27
2023-02-13T11:54:29.274Z,7.15
2023-02-13T11:57:04.850Z,7.35
2023-02-13T11:59:39.113Z,8.00
2023-02-13T12:02:46.261Z,7.38
2023-02-13T12:05:24.944Z,6.63
2023-02-13T12:07:55.796Z,5.32
2023-02-13T12:10:32.823Z,6.72
2023-02-13T12:13:09.689Z,5.97
2023-02-13T12:15:42.162Z,6.03
2023-02-13T12:18:28.666Z,4.93
2023-02-13T12:21:01.687Z,5.10
2023-02-13T12:23:49.275Z,5.85
2023-02-13T12:26:36.488Z,5.13
2023-02-13T12:29:17.662Z,5.80
2023-02-13T12:31:47.459Z,5.50
2023-02-13T12:34:23.932Z,5.90
2023-02-13T12:37:00.081Z,5.45
2023-02-13T12:40:03.572Z,5.30
2023-02-13T12:42:54.967Z,5.70
2023-02-13T12:45:34.809Z,5.50
2023-02-13T12:48:23.759Z,5.65
2023-02-13T12:50:59.254Z,6.50
2023-02-13T12:53:43.462Z,5.78
2023-02-13T12:56:38.766Z,6.20
2023-02-13T12:59:28.966Z,6.20
2023-02-13T13:02:17.332Z,6.57
2023-02-13T13:04:53.246Z,8.82
2023-02-13T13:07:40.708Z,9.30
2023-02-13T13:10:36.290Z,9.85
2023-02-13T13:13:30.017Z,10.13
2023-02-13T13:15:57.186Z,10.40
2023-02-13T13:19:03.925Z,10.10
2023-02-13T13:21:33.460Z,10.63
2023-02-13T13:24:34.174Z,9.45
2023-02-13T13:27:02.643Z,9.83
2023-02-13T13:29:41.960Z,10.38
2023-02-13T13:32:13.920Z,10.13
2023-02-13T13:34:41.018Z,9.82
2023-02-13T13:37:20.216Z,12.40
2023-02-13T13:39:54.599Z,10.60
2023-02-13T13:42:30.895Z,11.07
2023-02-13T13:45:29.185Z,11.40
2023-02-13T13:48:06.970Z,10.85
2023-02-13T13:50:37.931Z,12.25
2023-02-13T13:53:04.807Z,11.00
2023-02-13T13:55:47.433Z,12.02
2023-02-13T13:58:39.560Z,12.15
2023-02-13T14:01:16.550Z,11.52
2023-02-13T14:03:47.249Z,10.60
2023-02-13T14:06:17.216Z,11.70
2023-02-13T14:08:47.589Z,11.63
2023-02-13T14:11:37.230Z,11.18
2023-02-13T14:14:28.966Z,11.25
2023-02-13T14:17:02.048Z,9.70
2023-02-13T14:19:46.032Z,10.77
2023-02-13T14:22:19.070Z,10.10
2023-02-13T14:24:54.497Z,10.55
2023-02-13T14:27:25.981Z,10.88
2023-02-13T14:29:53.301Z,9.50
2023-02-13T14:32:29.318Z,9.63
2023-02-13T14:34:59.564Z,9.23
2023-02-13T14:37:40.268Z,8.90
2023-02-13T14:40:28.048Z,9.48
2023-02-13T14:43:22.257Z,9.50
2023-02-13T14:45:55.692Z,8.10
2023-02-13T14:48:30.114Z,8.85
2023-02-13T14:50:58.359Z,8.52
2023-02-13T14:53:45.634Z,8.80
2023-02-13T14:56:14.898Z,7.60
2023-02-13T14:58:49.217Z,7.97
2023-02-13T15:01:30.659Z,7.95
2023-02-13T15:04:05.729Z,7.93
2023-02-13T15:06:37.595Z,6.85
2023-02-13T15:09:24.644Z,6.97
2023-02-13T15:11:51.994Z,7.50
2023-02-13T15:14:23.533Z,6.47
2023-02-13T15:16:54.975Z,6.70
2023-02-13T15:19:23.867Z,6.13
2023-02-13T15:21:57.130Z,7.13
2023-02-13T15:24:25.125Z,6.30
2023-02-13T15:27:00.885Z,7.25
2023-02-13T15:29:37.909Z,8.70
2023-02-13T15:32:19.621Z,9.15
2023-02-13T15:34:48.650Z,8.00
2023-02-13T15:37:24.178Z,7.53
2023-02-13T15:39:51.216Z,8.13
2023-02-13T15:42:18.332Z,8.15
2023-02-13T15:44:48.752Z,8.57
2023-02-13T15:47:22.302Z,10.45
2023-02-13T15:49:50.642Z,8.10
2023-02-13T15:52:30.920Z,8.85
2023-02-13T15:54:59.305Z,10.82
2023-02-13T15:57:27.582Z,11.10
2023-02-13T15:59:56.109Z,9.00
2023-02-13T16:02:29.448Z,7.20
2023-02-13T16:04:57.041Z,6.68
2023-02-13T16:07:24.506Z,5.80
2023-02-13T16:09:52.667Z,5.53
2023-02-13T16:12:23.465Z,6.07
2023-02-13T16:14:57.288Z,6.93
2023-02-13T16:17:29.324Z,5.88
2023-02-13T16:20:05.679Z,5.32
2023-02-13T16:22:47.326Z,5.75
2023-02-13T16:25:36.586Z,6.22
2023-02-13T16:28:10.191Z,6.93
2023-02-13T16:30:41.733Z,6.88
2023-02-13T16:33:16.957Z,6.70
2023-02-13T16:35:49.209Z,5.43
2023-02-13T16:38:33.613Z,5.97
2023-02-13T16:41:04.144Z,4.80
2023-02-13T16:44:02.064Z,4.70
2023-02-13T16:46:36.276Z,5.10
2023-02-13T16:49:06.823Z,4.93
2023-02-13T16:52:04.833Z,5.75
2023-02-13T16:55:02.520Z,6.20
2023-02-13T16:57:31.846Z,5.55
2023-02-13T17:00:07.460Z,5.50
2023-02-13T17:02:37.383Z,5.93
2023-02-13T17:05:07.231Z,6.20
2023-02-13T17:07:38.107Z,6.07
2023-02-13T17:10:05.968Z,5.68
2023-02-13T17:12:39.010Z,5.95
2023-02-13T17:15:12.615Z,6.38
2023-02-13T17:17:40.621Z,6.97
2023-02-13T17:20:09.441Z,6.03
2023-02-13T17:22:44.168Z,7.72
2023-02-13T17:25:28.552Z,6.78
2023-02-13T17:27:59.382Z,7.68
2023-02-13T17:30:29.715Z,7.38
2023-02-13T17:33:07.353Z,7.57
2023-02-13T17:35:35.622Z,7.25
2023-02-13T17:38:04.635Z,8.18
2023-02-13T17:40:32.641Z,8.50
2023-02-13T17:43:00.635Z,8.40
2023-02-13T17:45:30.819Z,7.83
2023-02-13T17:47:58.820Z,7.60
2023-02-13T17:50:28.534Z,7.45
2023-02-13T17:52:56.821Z,7.63
2023-02-13T17:55:26.820Z,8.50
2023-02-13T17:57:56.832Z,9.23
2023-02-13T18:00:28.303Z,9.13
2023-02-13T18:02:56.674Z,9.25
2023-02-13T18:05:24.647Z,9.20
2023-02-13T18:07:52.011Z,9.95
2023-02-13T18:10:20.827Z,10.87
2023-02-13T18:12:51.931Z,10.70
2023-02-13T18:15:20.578Z,11.25
2023-02-13T18:17:48.677Z,11.60
2023-02-13T18:20:18.833Z,10.70
2023-02-13T18:22:46.834Z,10.47
2023-02-13T18:25:14.589Z,9.25
2023-02-13T18:27:42.411Z,9.35
2023-02-13T18:30:12.518Z,8.65
2023-02-13T18:32:40.667Z,8.73
2023-02-13T18:35:08.749Z,8.23
2023-02-13T18:37:36.424Z,10.27
2023-02-13T18:40:04.204Z,8.88
2023-02-13T18:42:32.422Z,8.52
2023-02-13T18:45:00.427Z,9.45
2023-02-13T18:47:28.021Z,10.37
2023-02-13T18:49:55.684Z,10.13
2023-02-13T18:52:24.367Z,12.35
2023-02-13T18:54:52.225Z,10.32
2023-02-13T18:57:20.436Z,9.15
2023-02-13T18:59:48.444Z,8.93
2023-02-13T19:02:16.875Z,8.93
2023-02-13T19:04:44.692Z,8.98
2023-02-13T19:07:12.693Z,8.68
2023-02-13T19:09:40.591Z,9.82
2023-02-13T19:12:08.876Z,9.87
2023-02-13T19:14:36.698Z,9.15
2023-02-13T19:17:04.697Z,8.27
2023-02-13T19:19:32.598Z,9.80
2023-02-13T19:22:00.453Z,9.23
2023-02-13T19:24:28.255Z,10.27
2023-02-13T19:26:56.048Z,10.52
2023-02-13T19:29:23.400Z,11.30
2023-02-13T19:31:51.428Z,11.85
2023-02-13T19:34:19.463Z,9.88
2023-02-13T19:36:47.610Z,9.77
2023-02-13T19:39:15.726Z,8.75
2023-02-13T19:41:44.279Z,9.98
2023-02-13T19:44:11.621Z,9.30
2023-02-13T19:46:39.377Z,10.15
2023-02-13T19:49:07.279Z,10.03
2023-02-13T19:51:35.280Z,9.45
2023-02-13T19:54:05.911Z,9.80
2023-02-13T19:56:36.043Z,9.88
2023-02-13T19:59:05.216Z,9.40
2023-02-13T20:01:33.278Z,8.27
2023-02-13T20:04:00.923Z,9.10
2023-02-13T20:06:32.921Z,8.98
2023-02-13T20:09:02.285Z,9.07
2023-02-13T20:11:29.925Z,9.13
2023-02-13T20:14:01.094Z,9.63
2023-02-13T20:16:33.274Z,8.93
2023-02-13T20:19:03.732Z,9.23
2023-02-13T20:21:32.330Z,9.15
2023-02-13T20:24:01.745Z,9.50
2023-02-13T20:26:29.754Z,8.73
2023-02-13T20:28:59.761Z,8.65
2023-02-13T20:31:29.428Z,8.60
2023-02-13T20:33:58.271Z,9.23
2023-02-13T20:36:28.493Z,8.57
2023-02-13T20:38:59.790Z,9.13
2023-02-13T20:41:33.933Z,9.25
2023-02-13T20:44:04.710Z,9.13
2023-02-13T20:46:37.509Z,9.45
2023-02-13T20:49:05.940Z,8.65
2023-02-13T20:51:33.765Z,7.97
2023-02-13T20:54:01.763Z,8.73
2023-02-13T20:56:29.409Z,9.38
2023-02-13T20:59:00.794Z,9.52
2023-02-13T21:01:37.666Z,9.38
2023-02-13T21:04:05.525Z,9.07
2023-02-13T21:06:35.522Z,8.98
2023-02-13T21:09:04.784Z,8.65
2023-02-13T21:11:34.528Z,8.10
2023-02-13T21:14:03.241Z,10.10
2023-02-13T21:16:34.403Z,10.70
2023-02-13T21:19:05.527Z,10.40
2023-02-13T21:21:34.785Z,10.88
2023-02-13T21:24:08.027Z,12.48
2023-02-13T21:26:36.357Z,12.40
2023-02-13T21:29:04.414Z,11.63
2023-02-13T21:31:36.603Z,10.13
2023-02-13T21:34:07.471Z,11.80
2023-02-13T21:36:36.125Z,10.32
2023-02-13T21:39:04.902Z,10.05
2023-02-13T21:41:32.547Z,10.90
2023-02-13T21:44:00.710Z,9.90
2023-02-13T21:46:30.132Z,11.07
2023-02-13T21:49:00.571Z,11.65
2023-02-13T21:51:30.137Z,11.77
2023-02-13T21:53:58.562Z,9.63
2023-02-13T21:56:28.371Z,9.35
2023-02-13T21:58:56.724Z,8.13
2023-02-13T22:01:27.482Z,9.68
2023-02-13T22:04:00.836Z,8.50
2023-02-13T22:06:30.576Z,9.03
2023-02-13T22:09:03.576Z,10.05
2023-02-13T22:11:31.389Z,11.23
2023-02-13T22:14:03.152Z,9.82
2023-02-13T22:16:32.524Z,10.23
2023-02-13T22:19:00.596Z,10.70
2023-02-13T22:21:30.167Z,11.85
2023-02-13T22:23:57.848Z,12.05
2023-02-13T22:26:30.397Z,9.82
2023-02-13T22:29:02.843Z,8.65
2023-02-13T22:31:30.799Z,9.93
2023-02-13T22:34:03.870Z,8.77
2023-02-13T22:36:34.170Z,8.50
2023-02-13T22:39:01.878Z,7.93
2023-02-13T22:41:29.479Z,7.32
2023-02-13T22:43:57.514Z,7.20
2023-02-13T22:46:30.227Z,7.30
2023-02-13T22:48:58.749Z,6.95
2023-02-13T22:51:31.932Z,6.60
2023-02-13T22:54:00.177Z,6.90
2023-02-13T22:56:28.873Z,7.13
2023-02-13T22:58:56.753Z,7.75
2023-02-13T23:01:25.996Z,6.82
2023-02-13T23:03:54.387Z,6.70
2023-02-13T23:06:22.753Z,7.18
2023-02-13T23:08:52.986Z,8.13
2023-02-13T23:11:40.755Z,7.30
2023-02-13T23:14:08.337Z,7.25
2023-02-13T23:16:54.759Z,7.47
2023-02-13T23:19:22.864Z,7.32
2023-02-13T23:21:50.744Z,6.77
2023-02-13T23:24:18.764Z,8.20
2023-02-13T23:26:46.618Z,7.72
2023-02-13T23:29:14.433Z,7.97
2023-02-13T23:31:42.525Z,7.10
2023-02-13T23:34:10.433Z,7.20
2023-02-13T23:36:38.199Z,7.20
2023-02-13T23:39:05.598Z,7.05
2023-02-13T23:41:33.085Z,6.85
2023-02-13T23:44:00.884Z,7.03
2023-02-13T23:46:28.903Z,6.57
2023-02-13T23:48:56.883Z,6.50
2023-02-13T23:51:25.986Z,6.30
2023-02-13T23:53:56.636Z,6.90
2023-02-13T23:56:25.637Z,6.40
2023-02-13T23:58:53.782Z,7.70
